Terminal Aerodrome Forecast
Issued by NWS Pueblo, CO

Home | Current Version | Previous Version | Text Only | Print | Product List | Glossary On
Versions: 1 2 3 4 5 6 7 8 9 10 11 12 13 14 15 16 17 18 19 20 21 22 23 24
000
FTUS45 KPUB 261732
TAFPUB
TAF
KPUB 261732Z 2618/2718 09010KT P6SM VCSH SCT050 BKN100
     FM262000 12014KT 5SM -TSRA BKN050CB
      TEMPO 2621/2624 VRB20G40KT 3SM TSRA BKN030CB
     FM270000 02015G27KT P6SM VCSH BKN040
     FM270300 30015G27KT P6SM VCSH OVC030
     FM270500 32015G25KT P6SM VCSH BKN030
     FM270900 34015G30KT 5SM -SHRA BKN025
     FM271600 35020G30KT P6SM SCT050 BKN080=

USA.gov is the U.S. government's official web portal to all federal, state and local government web resources and services.